Time;durP1;ratioP1;P1;durP2;ratioP2;P2;SDS_P1;SDS_P2;PMS_P1;PMS_P2;Temp;Humidity;BMP_temperature;BMP_pressure;BME280_temperature;BME280_humidity;BME280_pressure;Samples;Min_cycle;Max_cycle;Signal;HPM_P1;HPM_P2
2023/03/27 00:01:01;;;;;;;7.00;1.85;;;;;;;10.97;68.02;97569.19;6229159;23;20012;-94
2023/03/27 00:03:29;;;;;;;5.43;1.80;;;;;;;11.15;66.98;97591.41;6229378;23;20022;-94
2023/03/27 00:05:59;;;;;;;3.80;2.10;;;;;;;11.05;67.00;97556.41;6228604;23;20027;-95
2023/03/27 00:08:25;;;;;;;6.93;2.25;;;;;;;11.19;66.16;97575.22;6228637;23;20024;-93
2023/03/27 00:10:52;;;;;;;7.57;2.35;;;;;;;11.20;65.21;97562.78;6223660;23;20079;-93
2023/03/27 00:13:20;;;;;;;7.32;2.10;;;;;;;11.16;65.13;97554.06;6224162;23;20048;-95
2023/03/27 00:15:46;;;;;;;10.15;2.25;;;;;;;11.19;64.50;97553.06;6224399;23;20013;-95
2023/03/27 00:18:15;;;;;;;4.80;1.73;;;;;;;11.14;64.83;97550.63;6224697;23;20090;-94
2023/03/27 00:20:41;;;;;;;6.68;2.00;;;;;;;11.05;64.69;97538.63;6223526;23;20066;-95
2023/03/27 00:23:12;;;;;;;6.75;1.73;;;;;;;11.05;64.98;97540.44;6226784;23;20017;-93
2023/03/27 00:25:41;;;;;;;7.07;2.20;;;;;;;11.08;65.13;97543.81;6225943;23;20012;-95
2023/03/27 00:28:07;;;;;;;7.43;2.20;;;;;;;11.10;65.87;97551.72;6226300;23;20020;-95
2023/03/27 00:30:34;;;;;;;7.22;1.95;;;;;;;11.00;66.78;97545.13;6252352;23;20571;-93
2023/03/27 00:33:00;;;;;;;6.82;1.80;;;;;;;10.95;66.37;97537.38;6224419;23;20508;-93
2023/03/27 00:35:29;;;;;;;5.43;1.80;;;;;;;10.90;66.36;97524.28;6225101;23;20384;-93
2023/03/27 00:37:57;;;;;;;5.95;1.83;;;;;;;10.98;66.16;97531.03;6225152;23;20021;-94
2023/03/27 00:40:24;;;;;;;9.10;2.65;;;;;;;11.00;67.05;97542.47;6226431;23;20020;-93
2023/03/27 00:42:56;;;;;;;10.90;2.55;;;;;;;10.88;66.96;97530.59;6225655;23;20453;-93
2023/03/27 00:45:25;;;;;;;7.90;1.83;;;;;;;10.93;66.40;97523.28;6225368;23;20024;-93
2023/03/27 00:47:55;;;;;;;9.48;2.38;;;;;;;10.86;66.45;97505.88;6225454;23;20027;-93
2023/03/27 00:50:26;;;;;;;6.68;2.13;;;;;;;11.03;66.10;97513.91;6224321;23;20067;-94
2023/03/27 00:52:58;;;;;;;4.95;2.13;;;;;;;10.95;65.80;97491.28;6225222;23;20048;-94
2023/03/27 00:55:29;;;;;;;6.00;1.70;;;;;;;10.97;66.16;97484.94;6226020;23;20021;-94
2023/03/27 00:58:00;;;;;;;8.68;2.00;;;;;;;10.96;65.65;97475.25;6225396;23;20028;-93
2023/03/27 01:00:31;;;;;;;5.45;2.03;;;;;;;11.03;66.48;97491.78;6226148;23;20080;-94
2023/03/27 01:03:04;;;;;;;5.50;1.80;;;;;;;10.85;66.54;97465.13;6225349;23;20055;-93
2023/03/27 01:05:30;;;;;;;6.22;1.95;;;;;;;10.86;66.69;97466.00;6225363;23;20103;-94
2023/03/27 01:07:57;;;;;;;7.28;2.38;;;;;;;11.05;66.68;97503.19;6225505;23;20111;-93
2023/03/27 01:10:33;;;;;;;7.35;1.75;;;;;;;10.95;66.75;97485.97;6225933;23;20000;-95
2023/03/27 01:13:11;;;;;;;5.40;1.80;;;;;;;11.01;66.12;97477.69;6254040;23;20027;-93
2023/03/27 01:15:44;;;;;;;9.10;2.05;;;;;;;11.01;66.82;97483.00;6229329;23;20079;-94
2023/03/27 01:18:36;;;;;;;12.15;2.42;;;;;;;11.06;67.31;97505.78;6229585;23;20111;-93
2023/03/27 01:21:26;;;;;;;12.07;2.63;;;;;;;10.82;66.72;97467.06;6229628;23;20012;-94
2023/03/27 01:24:38;;;;;;;6.38;2.40;;;;;;;11.10;66.88;97502.03;6225484;23;20327;-94
2023/03/27 01:27:15;;;;;;;7.72;1.92;;;;;;;11.07;67.39;97486.22;6231702;23;20023;-94
2023/03/27 01:30:05;;;;;;;8.63;2.05;;;;;;;10.95;67.94;97493.94;6230557;23;20055;-95
2023/03/27 01:33:06;;;;;;;11.20;2.15;;;;;;;11.02;67.44;97479.41;6229559;23;20119;-95
2023/03/27 01:36:00;;;;;;;8.05;1.80;;;;;;;11.12;68.10;97501.94;6256751;23;20016;-94
2023/03/27 01:39:04;;;;;;;10.60;2.78;;;;;;;11.07;68.56;97509.31;6230492;23;20028;-96
2023/03/27 01:41:40;;;;;;;7.03;2.22;;;;;;;10.89;68.90;97480.00;6230880;23;20386;-93
2023/03/27 01:44:15;;;;;;;7.65;1.90;;;;;;;10.87;69.16;97473.91;6229982;23;20020;-93
2023/03/27 01:46:49;;;;;;;7.70;1.70;;;;;;;11.01;69.39;97496.31;6229472;23;20027;-94
2023/03/27 01:49:23;;;;;;;10.32;2.33;;;;;;;10.98;69.04;97485.81;6255359;23;20073;-93
2023/03/27 01:51:55;;;;;;;13.40;2.35;;;;;;;11.00;68.86;97490.13;6230871;23;20490;-94
2023/03/27 01:54:26;;;;;;;9.55;2.03;;;;;;;10.96;68.56;97480.56;6229644;23;20087;-95
2023/03/27 01:57:01;;;;;;;5.93;1.95;;;;;;;11.02;68.78;97490.06;6229495;23;20028;-93
2023/03/27 01:59:32;;;;;;;9.40;2.20;;;;;;;10.94;68.34;97478.94;6229544;23;20031;-94
2023/03/27 02:02:03;;;;;;;6.03;2.70;;;;;;;10.97;68.21;97474.31;6230221;23;20028;-94
2023/03/27 02:04:36;;;;;;;10.00;2.47;;;;;;;11.01;68.21;97473.22;6229475;23;20427;-93
2023/03/27 02:07:06;;;;;;;9.57;2.00;;;;;;;10.95;68.26;97464.69;6229882;23;20338;-95
2023/03/27 02:09:38;;;;;;;13.45;2.40;;;;;;;10.96;68.21;97464.63;6229317;23;20016;-94
2023/03/27 02:12:10;;;;;;;8.98;2.25;;;;;;;11.07;68.03;97480.03;6229444;23;20017;-95
2023/03/27 02:14:40;;;;;;;8.90;1.92;;;;;;;11.00;67.96;97471.50;6228985;23;20110;-96
2023/03/27 02:17:11;;;;;;;6.05;2.28;;;;;;;11.04;67.85;97473.09;6229365;23;20026;-95
2023/03/27 02:19:46;;;;;;;8.68;1.92;;;;;;;11.02;68.26;97463.47;6230316;23;20047;-95
2023/03/27 02:22:12;;;;;;;8.18;1.85;;;;;;;11.06;68.06;97470.31;6229598;23;20039;-94
2023/03/27 02:24:39;;;;;;;10.85;2.25;;;;;;;11.02;68.20;97466.13;6229437;23;20016;-93
2023/03/27 02:27:16;;;;;;;11.90;2.20;;;;;;;11.18;68.06;97491.00;6230588;23;20504;-94
2023/03/27 02:29:56;;;;;;;9.32;2.30;;;;;;;11.03;68.52;97474.00;6229632;23;20048;-94
2023/03/27 02:32:38;;;;;;;8.55;2.35;;;;;;;11.22;68.30;97511.19;6229964;23;20354;-94
2023/03/27 02:35:28;;;;;;;10.18;2.10;;;;;;;11.13;67.91;97487.72;6229966;23;20107;-95
2023/03/27 02:38:03;;;;;;;5.38;1.77;;;;;;;11.15;68.15;97488.50;6230380;23;20016;-94
2023/03/27 02:40:41;;;;;;;9.60;2.30;;;;;;;11.15;68.60;97487.66;6229606;23;20012;-94
2023/03/27 02:43:13;;;;;;;10.00;2.30;;;;;;;11.02;68.19;97468.78;6230287;23;20071;-94
2023/03/27 02:45:46;;;;;;;9.60;2.78;;;;;;;11.10;68.02;97478.09;6229392;23;20020;-93
2023/03/27 02:48:19;;;;;;;11.10;2.80;;;;;;;10.96;68.57;97461.09;6230590;23;20426;-94
2023/03/27 02:50:52;;;;;;;7.78;1.90;;;;;;;11.02;68.86;97474.97;6230406;23;20016;-94
2023/03/27 02:53:22;;;;;;;10.43;2.42;;;;;;;10.98;68.61;97468.06;6229688;23;20020;-95
2023/03/27 02:55:56;;;;;;;8.65;2.17;;;;;;;10.94;68.52;97452.34;6229152;23;20106;-92
2023/03/27 02:58:29;;;;;;;13.43;2.20;;;;;;;11.16;68.73;97492.03;6229586;23;20020;-94
2023/03/27 03:00:59;;;;;;;10.40;2.38;;;;;;;10.97;68.72;97457.50;6229464;23;20016;-93
2023/03/27 03:03:31;;;;;;;6.88;2.00;;;;;;;11.02;68.60;97482.94;6229918;23;20068;-94
2023/03/27 03:05:58;;;;;;;8.65;2.22;;;;;;;11.02;68.52;97482.94;6229087;23;20045;-94
2023/03/27 03:08:29;;;;;;;10.02;1.98;;;;;;;10.97;68.43;97465.47;6229020;23;20019;-92
2023/03/27 03:11:00;;;;;;;11.43;2.60;;;;;;;11.16;68.61;97490.22;6228174;23;20047;-93
2023/03/27 03:13:30;;;;;;;7.38;2.03;;;;;;;11.04;68.41;97482.88;6227894;23;20047;-94
2023/03/27 03:16:00;;;;;;;8.70;2.40;;;;;;;10.95;68.41;97470.00;6229264;23;20020;-95
2023/03/27 03:18:26;;;;;;;9.55;2.13;;;;;;;10.97;68.74;97476.09;6228616;23;20046;-92
2023/03/27 03:20:53;;;;;;;9.68;2.17;;;;;;;11.04;69.40;97477.53;6229354;23;20016;-93
2023/03/27 03:23:22;;;;;;;13.05;3.38;;;;;;;11.08;69.78;97485.28;6229939;23;20027;-94
2023/03/27 03:25:51;;;;;;;;;;;;;;;11.16;70.54;97500.84;6229522;23;20016;-93
2023/03/27 07:56:14;;;;;;;8.05;2.15;;;;;;;11.25;93.94;97614.81;5112169;27;20130;-94
2023/03/27 07:58:45;;;;;;;4.90;2.15;;;;;;;11.45;96.13;97621.88;5100474;28;20040;-95
2023/03/27 08:01:12;;;;;;;4.75;2.40;;;;;;;11.27;94.83;97593.47;5098810;28;20528;-92
2023/03/27 08:03:45;;;;;;;5.93;2.30;;;;;;;11.34;97.62;97597.53;5098165;28;20051;-94
2023/03/27 08:06:11;;;;;;;6.22;2.30;;;;;;;11.76;94.59;97608.81;5099301;28;20055;-94
2023/03/27 08:08:38;;;;;;;6.32;2.88;;;;;;;12.15;94.10;97631.75;5102243;28;20045;-94
2023/03/27 08:11:04;;;;;;;6.50;2.90;;;;;;;12.26;92.96;97608.91;5101615;28;20041;-93
2023/03/27 08:13:34;;;;;;;7.72;2.35;;;;;;;12.39;90.26;97610.94;5100223;28;20052;-93
2023/03/27 08:16:02;;;;;;;4.35;1.80;;;;;;;12.77;88.61;97629.34;5098413;28;20033;-94
2023/03/27 08:18:28;;;;;;;5.65;2.00;;;;;;;12.80;86.93;97613.19;5098644;28;20047;-95
2023/03/27 08:20:58;;;;;;;4.47;2.03;;;;;;;13.18;83.21;97611.03;5098857;28;20453;-95
2023/03/27 08:23:26;;;;;;;4.72;2.00;;;;;;;13.42;82.22;97635.53;5098444;28;20055;-96
2023/03/27 08:25:52;;;;;;;4.72;1.90;;;;;;;13.34;83.48;97617.28;5099613;28;20024;-95
2023/03/27 08:28:19;;;;;;;4.93;2.28;;;;;;;13.52;81.26;97641.22;5101100;28;20039;-96
2023/03/27 08:30:48;;;;;;;7.38;2.90;;;;;;;13.50;81.35;97619.06;5100267;28;20041;-95
2023/03/27 08:33:15;;;;;;;6.13;2.05;;;;;;;12.92;83.62;97629.38;5100236;28;20076;-94
2023/03/27 08:35:46;;;;;;;6.65;2.40;;;;;;;12.86;85.43;97635.06;5100477;28;20044;-95
2023/03/27 08:38:12;;;;;;;6.47;2.20;;;;;;;13.24;85.13;97629.38;5099746;28;20040;-94
2023/03/27 08:40:47;;;;;;;8.95;2.28;;;;;;;13.52;83.61;97622.53;5099600;28;20047;-96
2023/03/27 08:43:17;;;;;;;9.45;3.60;;;;;;;13.45;82.56;97646.06;5099764;28;20045;-94
2023/03/27 08:45:52;;;;;;;8.60;2.67;;;;;;;13.69;82.36;97634.91;5099350;28;20059;-96
2023/03/27 08:48:26;;;;;;;4.10;2.40;;;;;;;13.75;80.31;97634.56;5099574;28;20052;-96
2023/03/27 08:50:55;;;;;;;5.63;2.17;;;;;;;13.72;82.15;97613.34;5099361;28;20040;-95
2023/03/27 08:53:35;;;;;;;6.07;2.17;;;;;;;14.11;79.46;97636.88;5099409;28;20028;-95
2023/03/27 08:56:03;;;;;;;7.00;2.20;;;;;;;14.60;77.36;97669.69;5098914;28;20052;-96
2023/03/27 08:58:33;;;;;;;6.13;3.05;;;;;;;14.43;76.71;97652.78;5098937;28;20052;-96
2023/03/27 09:01:10;;;;;;;4.67;2.20;;;;;;;14.26;77.99;97635.09;5098249;28;20051;-96
2023/03/27 09:03:44;;;;;;;5.88;2.08;;;;;;;14.43;74.72;97642.09;5097551;28;20265;-94
2023/03/27 09:06:23;;;;;;;6.55;2.20;;;;;;;14.64;74.05;97649.78;5091560;28;20044;-95
2023/03/27 09:08:55;;;;;;;7.38;2.40;;;;;;;14.16;75.75;97640.16;5083408;28;20044;-94
2023/03/27 09:11:36;;;;;;;6.45;2.58;;;;;;;13.98;77.76;97665.28;5083037;28;20111;-96
2023/03/27 09:14:12;;;;;;;5.75;2.75;;;;;;;13.50;79.56;97669.81;5082863;28;20045;-95
2023/03/27 09:16:48;;;;;;;7.78;2.72;;;;;;;12.97;83.28;97654.94;5083250;28;20056;-95
2023/03/27 09:19:24;;;;;;;6.25;2.60;;;;;;;12.82;84.53;97656.66;5083512;28;20045;-95
2023/03/27 09:21:56;;;;;;;7.00;2.60;;;;;;;12.77;84.94;97667.53;5082951;28;20573;-95
2023/03/27 09:24:31;;;;;;;5.35;1.90;;;;;;;12.77;85.48;97666.69;5083499;28;20040;-96
2023/03/27 09:27:10;;;;;;;5.78;2.35;;;;;;;13.05;84.24;97698.09;5083648;28;20048;-95
2023/03/27 09:29:40;;;;;;;8.90;3.80;;;;;;;12.55;84.97;97667.81;5084091;28;20075;-95
2023/03/27 09:32:14;;;;;;;11.35;4.30;;;;;;;12.72;87.50;97682.94;5083796;28;20052;-96
2023/03/27 09:34:40;;;;;;;6.72;2.83;;;;;;;12.92;86.74;97672.09;5084432;28;20041;-95
2023/03/27 09:37:12;;;;;;;3.83;2.15;;;;;;;13.39;83.96;97705.13;5085292;28;20440;-96
2023/03/27 09:39:41;;;;;;;8.48;2.90;;;;;;;13.20;84.64;97673.22;5084404;28;20040;-95
2023/03/27 09:42:16;;;;;;;6.90;2.58;;;;;;;13.61;83.16;97707.47;5085139;28;20040;-96
2023/03/27 09:44:46;;;;;;;6.90;2.10;;;;;;;13.79;80.94;97707.38;5083750;28;20024;-96
2023/03/27 09:47:24;;;;;;;5.20;2.00;;;;;;;14.24;77.74;97666.41;5086879;28;20051;-96
2023/03/27 09:50:20;;;;;;;5.45;2.30;;;;;;;14.00;75.52;97682.09;5084928;28;20035;-96
2023/03/27 09:52:46;;;;;;;6.10;2.33;;;;;;;14.34;75.31;97680.09;5086714;28;20051;-95
2023/03/27 09:55:25;;;;;;;6.43;2.35;;;;;;;14.49;73.03;97697.91;5084688;28;20052;-95
2023/03/27 09:57:57;;;;;;;;;;;;;;;14.60;75.65;97724.03;5084079;28;20048;-96
2023/03/27 10:00:30;;;;;;;6.68;2.30;;;;;;;14.80;72.38;97674.66;5084928;28;19921;-96
2023/03/27 10:03:04;;;;;;;7.30;2.47;;;;;;;15.53;71.57;97676.34;5086161;28;20057;-96
2023/03/27 10:05:33;;;;;;;10.70;2.42;;;;;;;15.82;69.59;97669.09;5083444;28;20045;-96
2023/03/27 10:08:21;;;;;;;5.15;2.28;;;;;;;15.64;69.97;97671.13;5083379;28;20049;-96
2023/03/27 10:10:54;;;;;;;9.98;2.55;;;;;;;15.50;68.81;97682.72;5082263;28;20136;-95
2023/03/27 10:13:25;;;;;;;6.90;2.58;;;;;;;15.75;68.55;97697.28;5083675;28;20048;-96
2023/03/27 10:15:58;;;;;;;6.38;2.45;;;;;;;16.20;67.84;97676.41;5085265;28;20044;-96
2023/03/27 10:18:30;;;;;;;9.73;2.60;;;;;;;15.16;69.33;97684.91;5084322;28;20112;-96
2023/03/27 10:21:00;;;;;;;7.68;2.40;;;;;;;15.37;69.84;97685.34;5085061;28;20049;-95
2023/03/27 10:23:28;;;;;;;7.32;2.30;;;;;;;15.31;68.08;97690.22;5084789;28;20056;-96
2023/03/27 10:25:58;;;;;;;5.68;2.55;;;;;;;15.39;69.30;97683.41;5083645;28;20060;-95
2023/03/27 10:28:28;;;;;;;6.82;2.80;;;;;;;15.59;70.29;97683.94;5088424;28;20041;-96
2023/03/27 10:31:07;;;;;;;5.43;2.60;;;;;;;15.96;69.75;97701.22;5085764;28;20379;-96
2023/03/27 10:33:35;;;;;;;;;;;;;;;16.14;69.01;97707.19;5084278;28;20051;-96
2023/03/27 10:36:06;;;;;;;5.87;2.50;;;;;;;15.43;70.36;97677.88;5085123;28;19943;-96
2023/03/27 10:38:34;;;;;;;6.25;2.38;;;;;;;15.26;72.99;97678.94;5084017;28;20428;-96
2023/03/27 10:41:05;;;;;;;7.47;2.40;;;;;;;15.12;73.09;97677.16;5083887;28;20056;-94
2023/03/27 10:43:36;;;;;;;4.82;2.13;;;;;;;15.03;72.43;97675.03;5083628;28;20114;-96
2023/03/27 10:46:07;;;;;;;6.57;2.58;;;;;;;14.65;72.47;97668.44;5084364;28;20056;-95
2023/03/27 10:48:47;;;;;;;8.52;3.17;;;;;;;14.52;74.16;97683.47;5084011;28;20048;-96
2023/03/27 10:51:23;;;;;;;12.90;2.75;;;;;;;14.06;76.24;97664.84;5084469;28;20076;-95
2023/03/27 10:53:55;;;;;;;9.38;2.83;;;;;;;14.08;78.03;97693.19;5082829;28;20044;-95
2023/03/27 10:56:31;;;;;;;8.38;2.50;;;;;;;13.81;79.55;97652.03;5083106;28;20044;-94
2023/03/27 10:59:00;;;;;;;8.43;2.75;;;;;;;13.71;79.55;97641.88;5083116;28;20397;-96
2023/03/27 11:01:33;;;;;;;7.75;2.58;;;;;;;13.68;80.00;97668.75;5081926;28;20049;-96
2023/03/27 11:04:07;;;;;;;7.55;2.15;;;;;;;13.48;80.79;97659.22;5082009;28;20045;-96
2023/03/27 11:06:38;;;;;;;5.90;2.70;;;;;;;13.38;82.37;97675.84;5082044;28;20044;-95
2023/03/27 11:09:14;;;;;;;7.95;2.60;;;;;;;13.12;82.96;97695.00;5083084;28;20041;-96
2023/03/27 11:11:46;;;;;;;7.00;2.22;;;;;;;12.92;84.81;97687.22;5082422;28;20047;-96
2023/03/27 11:14:20;;;;;;;5.72;2.30;;;;;;;13.07;83.18;97677.50;5082151;28;20041;-96
2023/03/27 11:16:55;;;;;;;4.97;2.42;;;;;;;13.00;83.41;97673.47;5082858;28;20075;-95
2023/03/27 11:19:34;;;;;;;9.57;3.22;;;;;;;12.86;87.58;97683.09;5085965;28;20044;-96
2023/03/27 11:22:06;;;;;;;9.33;2.97;;;;;;;12.70;92.62;97684.84;5087119;28;20051;-95
2023/03/27 11:24:42;;;;;;;9.32;2.88;;;;;;;12.39;94.49;97678.44;5086351;28;20277;-94
2023/03/27 11:27:14;;;;;;;10.88;3.97;;;;;;;12.44;96.06;97670.19;5085111;28;20088;-95
2023/03/27 11:29:49;;;;;;;9.63;3.45;;;;;;;12.40;97.48;97669.50;5080467;28;20460;-95
2023/03/27 11:32:27;;;;;;;13.00;4.05;;;;;;;12.20;99.98;97669.66;5081823;28;20040;-95
2023/03/27 11:35:02;;;;;;;6.05;2.90;;;;;;;12.42;100.00;97667.59;5080849;28;20043;-95
2023/03/27 11:37:38;;;;;;;7.07;3.17;;;;;;;12.43;97.67;97657.81;5079636;28;20045;-95
2023/03/27 11:40:12;;;;;;;10.70;4.25;;;;;;;12.54;100.00;97676.78;5079694;28;20051;-95
2023/03/27 11:42:41;;;;;;;6.45;3.83;;;;;;;13.00;99.40;97663.66;5070041;28;20055;-95
2023/03/27 11:45:11;;;;;;;7.43;3.58;;;;;;;13.67;100.00;97695.59;5076732;28;20036;-94
2023/03/27 11:47:56;;;;;;;8.43;3.33;;;;;;;14.06;99.95;97648.81;5078459;28;20114;-95
2023/03/27 11:50:32;;;;;;;9.90;3.03;;;;;;;14.57;96.02;97649.31;5016143;28;20044;-96
2023/03/27 11:53:19;;;;;;;5.85;2.70;;;;;;;15.08;89.46;97660.41;5078194;28;20048;-95
2023/03/27 11:56:06;;;;;;;7.43;2.80;;;;;;;15.02;84.30;97623.31;5081272;28;20127;-96
2023/03/27 11:58:39;;;;;;;6.57;2.72;;;;;;;14.95;86.89;97632.69;5080584;28;20139;-95
2023/03/27 12:01:17;;;;;;;7.60;3.38;;;;;;;15.08;87.38;97624.75;5081019;28;20144;-96
2023/03/27 12:04:07;;;;;;;8.40;3.20;;;;;;;15.04;83.65;97631.25;5080952;28;20500;-95
2023/03/27 12:06:43;;;;;;;7.18;2.33;;;;;;;14.89;78.45;97651.81;5081274;28;20102;-94
2023/03/27 12:09:28;;;;;;;9.63;2.38;;;;;;;14.71;81.08;97611.00;5067104;28;20040;-95
2023/03/27 12:12:06;;;;;;;8.32;2.55;;;;;;;14.66;80.55;97605.94;5083037;28;20024;-95
2023/03/27 12:14:47;;;;;;;8.02;3.20;;;;;;;14.66;81.46;97594.38;5083437;28;20036;-95
2023/03/27 12:17:42;;;;;;;8.15;3.75;;;;;;;14.52;82.59;97593.38;5082749;28;20040;-95
2023/03/27 12:20:31;;;;;;;12.27;4.50;;;;;;;14.71;80.65;97630.59;5080528;28;20052;-95
2023/03/27 12:23:09;;;;;;;6.47;3.40;;;;;;;14.66;80.57;97607.75;5084593;28;20064;-93
2023/03/27 12:25:56;;;;;;;6.72;3.00;;;;;;;14.65;79.31;97606.88;5083609;28;20551;-94
2023/03/27 12:28:35;;;;;;;7.80;2.92;;;;;;;14.72;75.16;97607.38;5078628;28;20051;-95
2023/03/27 12:31:15;;;;;;;7.18;3.83;;;;;;;14.76;76.78;97598.19;5081168;28;20135;-95
2023/03/27 12:33:54;;;;;;;15.55;8.40;;;;;;;15.03;74.66;97592.03;5081889;28;20040;-95
2023/03/27 12:36:23;;;;;;;;;;;;;;;15.47;70.99;97624.00;5083666;28;20071;-96
2023/03/27 12:38:54;;;;;;;7.53;2.50;;;;;;;15.51;59.73;97603.22;5086202;28;19943;-94
2023/03/27 12:41:28;;;;;;;6.60;2.83;;;;;;;15.66;64.09;97591.50;5084472;28;20448;-94
2023/03/27 12:43:57;;;;;;;5.15;2.30;;;;;;;15.90;68.70;97588.16;5087147;28;20044;-94
2023/03/27 12:46:32;;;;;;;5.55;2.67;;;;;;;16.16;67.38;97583.72;5087095;28;20045;-96
2023/03/27 12:49:20;;;;;;;6.57;2.78;;;;;;;16.28;68.07;97579.31;5085784;28;20040;-95
2023/03/27 12:52:03;;;;;;;8.47;2.70;;;;;;;16.27;66.64;97572.25;5085205;28;20041;-95
2023/03/27 12:54:33;;;;;;;7.18;3.30;;;;;;;16.17;67.95;97588.09;5085031;28;20397;-96
2023/03/27 12:57:04;;;;;;;7.47;2.95;;;;;;;15.76;67.85;97571.16;5084562;28;20121;-96
2023/03/27 12:59:32;;;;;;;7.78;4.03;;;;;;;15.84;67.00;97588.56;5082017;28;20044;-96
2023/03/27 13:02:41;;;;;;;6.10;2.30;;;;;;;15.59;71.33;97566.94;5083010;28;20044;-96
2023/03/27 13:05:28;;;;;;;11.18;4.30;;;;;;;15.30;68.76;97568.84;5085729;28;20032;-95
2023/03/27 13:08:13;;;;;;;7.22;2.95;;;;;;;15.07;66.33;97574.81;5082500;28;20080;-95
2023/03/27 13:10:55;;;;;;;4.47;2.42;;;;;;;14.80;71.30;97586.34;5081833;28;20052;-95
2023/03/27 13:14:04;;;;;;;5.72;2.60;;;;;;;14.68;71.20;97593.34;5082722;28;20052;-95
2023/03/27 13:17:01;;;;;;;7.18;2.42;;;;;;;14.32;71.66;97601.78;5082511;28;20040;-96
2023/03/27 13:19:39;;;;;;;12.18;6.20;;;;;;;14.15;73.76;97592.94;5085310;28;20044;-96
2023/03/27 13:22:17;;;;;;;8.30;3.80;;;;;;;14.16;73.07;97584.00;5083464;28;20076;-95
2023/03/27 13:25:00;;;;;;;10.23;3.22;;;;;;;14.25;72.98;97592.38;5084429;28;20045;-96
2023/03/27 13:27:42;;;;;;;11.77;6.38;;;;;;;14.62;69.18;97593.72;5084602;28;20048;-95
2023/03/27 13:30:40;;;;;;;10.95;6.00;;;;;;;14.99;70.82;97602.97;5083818;28;20135;-96
2023/03/27 13:33:17;;;;;;;10.32;4.18;;;;;;;15.28;70.15;97602.91;5083016;28;20052;-96
2023/03/27 13:36:01;;;;;;;6.82;3.20;;;;;;;15.03;69.10;97584.00;5082487;28;20090;-95
2023/03/27 13:38:47;;;;;;;6.60;3.20;;;;;;;15.00;64.88;97583.25;5083499;28;20565;-95
2023/03/27 13:41:40;;;;;;;6.90;2.90;;;;;;;15.15;66.85;97623.41;5083644;28;20068;-96
2023/03/27 13:44:11;;;;;;;6.53;2.97;;;;;;;14.85;66.07;97583.38;5083347;28;20071;-96
2023/03/27 13:46:45;;;;;;;11.13;6.35;;;;;;;14.89;65.16;97600.97;5082690;28;20048;-95
2023/03/27 13:49:32;;;;;;;6.72;3.58;;;;;;;14.73;64.34;97601.06;5083729;28;20059;-95
2023/03/27 13:52:17;;;;;;;6.95;2.70;;;;;;;14.41;62.77;97598.53;5083373;28;20041;-94
2023/03/27 13:55:10;;;;;;;6.13;2.33;;;;;;;14.29;68.63;97620.66;5084660;28;20094;-94
2023/03/27 13:57:57;;;;;;;9.45;2.50;;;;;;;13.85;69.00;97614.34;5085704;28;20099;-96
2023/03/27 14:00:54;;;;;;;5.28;2.30;;;;;;;13.47;70.40;97640.63;5087324;28;20054;-96
2023/03/27 14:03:56;;;;;;;7.32;3.17;;;;;;;13.19;76.05;97708.88;5087895;28;20046;-96
2023/03/27 14:07:11;;;;;;;8.52;4.28;;;;;;;12.83;74.90;97717.91;5087583;28;20048;-95
2023/03/27 14:09:56;;;;;;;11.50;4.65;;;;;;;12.84;75.16;97742.81;5087913;28;20044;-95
2023/03/27 14:12:37;;;;;;;9.05;3.97;;;;;;;12.79;77.13;97761.69;5084540;28;20060;-94
2023/03/27 14:15:39;;;;;;;5.15;2.50;;;;;;;12.47;67.51;97766.03;5086638;28;20041;-95
2023/03/27 14:18:35;;;;;;;3.90;1.70;;;;;;;11.55;67.47;97790.00;5082281;28;20048;-95
2023/03/27 14:21:04;;;;;;;2.42;1.52;;;;;;;10.76;65.10;97794.47;5078799;28;20049;-94
2023/03/27 14:23:34;;;;;;;3.92;1.55;;;;;;;10.50;72.12;97822.16;5082171;28;20051;-93
2023/03/27 14:26:03;;;;;;;3.03;1.60;;;;;;;10.11;74.36;97809.56;5081928;28;20066;-93
2023/03/27 14:28:33;;;;;;;;;;;;;;;10.04;79.29;97831.06;5081738;28;20547;-94
2023/03/27 14:31:04;;;;;;;1.48;1.30;;;;;;;9.65;78.12;97780.41;5081555;28;19924;-94
2023/03/27 14:33:37;;;;;;;3.45;1.50;;;;;;;9.91;72.92;97802.38;5082148;28;20047;-94
2023/03/27 14:36:04;;;;;;;2.88;1.52;;;;;;;9.50;90.01;97781.84;5080736;28;20135;-94
2023/03/27 14:38:32;;;;;;;3.03;2.15;;;;;;;9.44;78.56;97752.91;5082995;28;20056;-93
2023/03/27 14:41:02;;;;;;;3.00;1.73;;;;;;;9.59;85.50;97752.28;5084056;28;20044;-91
2023/03/27 14:43:30;;;;;;;2.17;1.77;;;;;;;9.43;89.29;97737.88;5083020;28;20044;-94
2023/03/27 14:46:03;;;;;;;3.33;1.95;;;;;;;9.44;91.42;97731.66;5083491;28;20074;-93
2023/03/27 14:48:35;;;;;;;2.25;1.60;;;;;;;9.34;93.72;97778.03;5081908;28;20116;-92
2023/03/27 14:51:09;;;;;;;3.17;1.52;;;;;;;9.53;81.79;97788.84;5081644;28;20102;-94
2023/03/27 14:53:43;;;;;;;2.08;1.30;;;;;;;9.60;82.13;97790.31;5083064;28;20482;-94
2023/03/27 14:56:20;;;;;;;2.50;1.80;;;;;;;9.49;78.45;97785.41;5083523;28;20082;-94
2023/03/27 14:58:50;;;;;;;2.90;1.73;;;;;;;9.66;82.41;97798.91;5083399;28;20501;-93
2023/03/27 15:01:16;;;;;;;3.90;1.80;;;;;;;10.00;68.62;97799.38;5086050;28;20044;-94
2023/03/27 15:03:48;;;;;;;3.63;1.98;;;;;;;10.33;78.86;97852.09;5085257;28;20045;-93
2023/03/27 15:06:19;;;;;;;4.32;2.45;;;;;;;10.01;81.22;97841.78;5086414;28;20037;-95
2023/03/27 15:08:54;;;;;;;4.40;2.10;;;;;;;10.10;73.05;97831.72;5085839;28;20054;-93
2023/03/27 15:11:24;;;;;;;19.27;9.68;;;;;;;10.26;73.62;97822.22;5082891;28;20044;-94
2023/03/27 15:13:52;;;;;;;6.55;3.55;;;;;;;10.47;71.60;97873.63;5062963;28;20069;-93
2023/03/27 15:16:22;;;;;;;4.88;2.78;;;;;;;10.32;75.48;97835.25;5059873;28;20041;-92
2023/03/27 15:19:08;;;;;;;4.22;2.28;;;;;;;10.51;76.22;97879.72;5078594;28;20052;-93
2023/03/27 15:21:48;;;;;;;5.05;2.30;;;;;;;10.30;78.34;97857.50;5077993;28;20041;-93
2023/03/27 15:24:17;;;;;;;2.95;1.70;;;;;;;10.19;80.37;97863.22;5078613;28;20044;-93
2023/03/27 15:26:47;;;;;;;2.05;1.50;;;;;;;10.11;82.53;97814.88;5077898;28;20037;-94
2023/03/27 15:29:26;;;;;;;3.50;1.80;;;;;;;10.03;85.11;97821.34;5080585;28;20048;-94
2023/03/27 15:32:00;;;;;;;2.75;1.90;;;;;;;9.81;91.25;97816.03;5085090;28;20044;-95
2023/03/27 15:34:33;;;;;;;3.45;2.20;;;;;;;9.90;90.22;97833.38;5081537;28;20139;-95
2023/03/27 15:37:03;;;;;;;2.35;1.52;;;;;;;9.66;88.55;97804.22;5081295;28;20041;-94
2023/03/27 15:39:32;;;;;;;3.13;1.60;;;;;;;9.70;86.82;97802.31;5081612;28;20468;-94
2023/03/27 15:42:03;;;;;;;1.90;1.42;;;;;;;9.54;87.43;97798.50;5083079;28;20052;-94
2023/03/27 15:44:33;;;;;;;1.58;1.33;;;;;;;9.74;91.18;97832.28;5081098;28;20045;-93
2023/03/27 15:47:03;;;;;;;1.65;1.20;;;;;;;9.49;93.71;97803.13;5082245;28;20463;-94
2023/03/27 15:49:34;;;;;;;1.30;1.20;;;;;;;9.55;90.12;97822.34;5083377;28;20419;-94
2023/03/27 15:52:30;;;;;;;2.15;1.33;;;;;;;9.47;92.74;97816.47;5083369;28;20071;-94
2023/03/27 15:55:00;;;;;;;2.90;1.90;;;;;;;9.43;91.26;97836.97;5086995;28;20052;-95
2023/03/27 15:57:28;;;;;;;2.42;1.63;;;;;;;9.41;87.81;97840.56;5086197;28;20098;-95
2023/03/27 16:00:00;;;;;;;1.85;1.50;;;;;;;9.63;82.42;97836.19;5083659;28;20063;-94
2023/03/27 16:02:41;;;;;;;3.53;1.40;;;;;;;9.59;75.37;97862.91;5084351;28;20072;-94
2023/03/27 16:05:14;;;;;;;3.35;1.90;;;;;;;9.66;74.92;97881.19;5082708;28;20052;-94
2023/03/27 16:07:46;;;;;;;3.60;2.33;;;;;;;9.86;76.32;97930.88;5084489;28;20055;-93
2023/03/27 16:10:14;;;;;;;5.78;2.60;;;;;;;9.76;84.22;97923.31;5082475;28;20051;-95
2023/03/27 16:12:49;;;;;;;4.70;2.83;;;;;;;9.46;88.60;97889.91;5081677;28;20051;-95
2023/03/27 16:15:27;;;;;;;3.50;2.40;;;;;;;9.28;92.78;97921.53;5079460;28;20098;-95
2023/03/27 16:17:55;;;;;;;5.63;2.50;;;;;;;9.13;84.58;97962.72;5083941;28;20052;-93
2023/03/27 16:20:33;;;;;;;6.22;2.65;;;;;;;9.72;77.39;97999.56;5083435;28;20065;-93
2023/03/27 16:23:02;;;;;;;2.72;2.17;;;;;;;9.83;73.19;98009.81;5083732;28;20048;-92
2023/03/27 16:25:29;;;;;;;2.03;1.50;;;;;;;10.05;68.60;98020.50;5083631;28;20040;-93
2023/03/27 16:27:57;;;;;;;2.88;1.60;;;;;;;10.21;76.20;98068.63;5084897;28;20050;-93
2023/03/27 16:30:28;;;;;;;1.00;1.00;;;;;;;10.28;63.75;98056.88;5084110;28;20151;-95
2023/03/27 16:32:54;;;;;;;2.70;2.20;;;;;;;10.10;71.79;98028.31;5093769;28;20048;-94
2023/03/27 16:35:21;;;;;;;4.38;1.55;;;;;;;9.89;69.08;98009.59;5092707;28;20040;-93
2023/03/27 16:37:48;;;;;;;2.35;1.10;;;;;;;9.81;71.30;97974.47;5090807;28;20089;-95